sensor_id;sensor_type;location;lat;lon;timestamp;P1;durP1;ratioP1;P2;durP2;ratioP2
57249;SDS011;43102;52.014;-0.680;2022-09-12T00:00:00;8.20;;;6.10;;
57249;SDS011;43102;52.014;-0.680;2022-09-12T00:02:00;8.20;;;6.10;;
57249;SDS011;43102;52.014;-0.680;2022-09-12T00:03:00;8.20;;;6.10;;
57249;SDS011;43102;52.014;-0.680;2022-09-12T00:04:01;8.20;;;6.10;;
57249;SDS011;43102;52.014;-0.680;2022-09-12T00:05:00;8.20;;;6.10;;
57249;SDS011;43102;52.014;-0.680;2022-09-12T00:06:00;8.20;;;6.10;;
57249;SDS011;43102;52.014;-0.680;2022-09-12T00:07:00;8.20;;;6.10;;
57249;SDS011;43102;52.014;-0.680;2022-09-12T00:08:00;8.20;;;6.10;;
57249;SDS011;43102;52.014;-0.680;2022-09-12T00:09:03;8.20;;;6.10;;
57249;SDS011;43102;52.014;-0.680;2022-09-12T00:10:00;8.20;;;6.10;;
57249;SDS011;43102;52.014;-0.680;2022-09-12T00:11:05;8.20;;;6.10;;
57249;SDS011;43102;52.014;-0.680;2022-09-12T00:12:00;8.20;;;6.10;;
57249;SDS011;43102;52.014;-0.680;2022-09-12T00:13:00;8.20;;;6.10;;
57249;SDS011;43102;52.014;-0.680;2022-09-12T00:14:01;7.30;;;6.00;;
57249;SDS011;43102;52.014;-0.680;2022-09-12T00:15:00;7.30;;;6.00;;
57249;SDS011;43102;52.014;-0.680;2022-09-12T00:16:00;7.30;;;6.00;;
57249;SDS011;43102;52.014;-0.680;2022-09-12T00:17:01;7.30;;;6.00;;
57249;SDS011;43102;52.014;-0.680;2022-09-12T00:18:00;7.30;;;6.00;;
57249;SDS011;43102;52.014;-0.680;2022-09-12T00:19:01;7.30;;;6.00;;
57249;SDS011;43102;52.014;-0.680;2022-09-12T00:20:00;7.30;;;6.00;;
57249;SDS011;43102;52.014;-0.680;2022-09-12T00:21:02;7.30;;;6.00;;
57249;SDS011;43102;52.014;-0.680;2022-09-12T00:22:00;7.30;;;6.00;;
57249;SDS011;43102;52.014;-0.680;2022-09-12T00:23:00;7.30;;;6.00;;
57249;SDS011;43102;52.014;-0.680;2022-09-12T00:24:00;7.30;;;6.00;;
57249;SDS011;43102;52.014;-0.680;2022-09-12T00:25:00;7.30;;;6.00;;
57249;SDS011;43102;52.014;-0.680;2022-09-12T00:26:04;7.30;;;6.00;;
57249;SDS011;43102;52.014;-0.680;2022-09-12T00:27:00;7.30;;;6.00;;
57249;SDS011;43102;52.014;-0.680;2022-09-12T00:28:00;7.30;;;6.00;;
57249;SDS011;43102;52.014;-0.680;2022-09-12T00:29:00;7.30;;;6.00;;
57249;SDS011;43102;52.014;-0.680;2022-09-12T00:30:00;7.30;;;6.00;;
57249;SDS011;43102;52.014;-0.680;2022-09-12T00:31:04;7.30;;;6.00;;
57249;SDS011;43102;52.014;-0.680;2022-09-12T00:32:00;7.30;;;6.00;;
57249;SDS011;43102;52.014;-0.680;2022-09-12T00:33:00;7.30;;;6.00;;
57249;SDS011;43102;52.014;-0.680;2022-09-12T00:34:00;7.30;;;6.00;;
57249;SDS011;43102;52.014;-0.680;2022-09-12T00:35:01;7.30;;;6.00;;
57249;SDS011;43102;52.014;-0.680;2022-09-12T00:36:03;7.30;;;6.00;;
57249;SDS011;43102;52.014;-0.680;2022-09-12T00:37:00;7.30;;;6.00;;
57249;SDS011;43102;52.014;-0.680;2022-09-12T00:38:00;7.30;;;6.00;;
57249;SDS011;43102;52.014;-0.680;2022-09-12T00:39:01;7.30;;;6.00;;
57249;SDS011;43102;52.014;-0.680;2022-09-12T00:40:01;7.30;;;6.00;;
57249;SDS011;43102;52.014;-0.680;2022-09-12T00:41:00;7.30;;;6.00;;
57249;SDS011;43102;52.014;-0.680;2022-09-12T00:42:00;7.30;;;6.00;;
57249;SDS011;43102;52.014;-0.680;2022-09-12T00:43:00;7.30;;;6.00;;
57249;SDS011;43102;52.014;-0.680;2022-09-12T00:44:41;8.90;;;6.20;;
57249;SDS011;43102;52.014;-0.680;2022-09-12T00:45:00;8.90;;;6.20;;
57249;SDS011;43102;52.014;-0.680;2022-09-12T00:46:04;8.90;;;6.20;;
57249;SDS011;43102;52.014;-0.680;2022-09-12T00:47:05;8.90;;;6.20;;
57249;SDS011;43102;52.014;-0.680;2022-09-12T00:48:02;8.90;;;6.20;;
57249;SDS011;43102;52.014;-0.680;2022-09-12T00:49:11;8.90;;;6.20;;
57249;SDS011;43102;52.014;-0.680;2022-09-12T00:50:07;8.90;;;6.20;;
57249;SDS011;43102;52.014;-0.680;2022-09-12T00:51:01;8.90;;;6.20;;
57249;SDS011;43102;52.014;-0.680;2022-09-12T00:52:11;8.90;;;6.20;;
57249;SDS011;43102;52.014;-0.680;2022-09-12T00:53:06;8.90;;;6.20;;
57249;SDS011;43102;52.014;-0.680;2022-09-12T00:54:04;8.90;;;6.20;;
57249;SDS011;43102;52.014;-0.680;2022-09-12T00:56:00;8.90;;;6.20;;
57249;SDS011;43102;52.014;-0.680;2022-09-12T00:57:04;8.90;;;6.20;;
57249;SDS011;43102;52.014;-0.680;2022-09-12T00:58:02;8.90;;;6.20;;
57249;SDS011;43102;52.014;-0.680;2022-09-12T00:59:05;8.90;;;6.20;;
57249;SDS011;43102;52.014;-0.680;2022-09-12T01:00:09;8.90;;;6.20;;
57249;SDS011;43102;52.014;-0.680;2022-09-12T01:01:00;8.90;;;6.20;;
57249;SDS011;43102;52.014;-0.680;2022-09-12T01:02:00;8.90;;;6.20;;
57249;SDS011;43102;52.014;-0.680;2022-09-12T01:03:06;8.90;;;6.20;;
57249;SDS011;43102;52.014;-0.680;2022-09-12T01:04:01;8.90;;;6.20;;
57249;SDS011;43102;52.014;-0.680;2022-09-12T01:05:00;8.90;;;6.20;;
57249;SDS011;43102;52.014;-0.680;2022-09-12T01:06:08;8.90;;;6.20;;
57249;SDS011;43102;52.014;-0.680;2022-09-12T01:07:02;8.90;;;6.20;;
57249;SDS011;43102;52.014;-0.680;2022-09-12T01:08:03;8.90;;;6.20;;
57249;SDS011;43102;52.014;-0.680;2022-09-12T01:09:03;8.90;;;6.20;;
57249;SDS011;43102;52.014;-0.680;2022-09-12T01:10:00;8.90;;;6.20;;
57249;SDS011;43102;52.014;-0.680;2022-09-12T01:11:00;8.90;;;6.20;;
57249;SDS011;43102;52.014;-0.680;2022-09-12T01:12:01;8.90;;;6.20;;
57249;SDS011;43102;52.014;-0.680;2022-09-12T01:13:02;8.90;;;6.20;;
57249;SDS011;43102;52.014;-0.680;2022-09-12T01:14:00;8.20;;;6.80;;
57249;SDS011;43102;52.014;-0.680;2022-09-12T01:15:00;8.20;;;6.80;;
57249;SDS011;43102;52.014;-0.680;2022-09-12T01:16:03;8.20;;;6.80;;
57249;SDS011;43102;52.014;-0.680;2022-09-12T01:17:00;8.20;;;6.80;;
57249;SDS011;43102;52.014;-0.680;2022-09-12T01:18:11;8.20;;;6.80;;
57249;SDS011;43102;52.014;-0.680;2022-09-12T01:21:08;8.20;;;6.80;;
57249;SDS011;43102;52.014;-0.680;2022-09-12T01:29:23;8.20;;;6.80;;
57249;SDS011;43102;52.014;-0.680;2022-09-12T01:30:13;8.20;;;6.80;;
57249;SDS011;43102;52.014;-0.680;2022-09-12T01:31:05;8.20;;;6.80;;
57249;SDS011;43102;52.014;-0.680;2022-09-12T01:34:20;8.20;;;6.80;;
57249;SDS011;43102;52.014;-0.680;2022-09-12T01:35:10;8.20;;;6.80;;
57249;SDS011;43102;52.014;-0.680;2022-09-12T01:36:10;8.20;;;6.80;;
57249;SDS011;43102;52.014;-0.680;2022-09-12T01:37:09;8.20;;;6.80;;
57249;SDS011;43102;52.014;-0.680;2022-09-12T01:38:21;8.20;;;6.80;;
57249;SDS011;43102;52.014;-0.680;2022-09-12T01:39:03;8.20;;;6.80;;
57249;SDS011;43102;52.014;-0.680;2022-09-12T01:41:09;8.20;;;6.80;;
57249;SDS011;43102;52.014;-0.680;2022-09-12T01:42:29;8.20;;;6.80;;
57249;SDS011;43102;52.014;-0.680;2022-09-12T01:44:08;9.20;;;7.00;;
57249;SDS011;43102;52.014;-0.680;2022-09-12T01:45:10;9.20;;;7.00;;
57249;SDS011;43102;52.014;-0.680;2022-09-12T01:46:08;9.20;;;7.00;;
57249;SDS011;43102;52.014;-0.680;2022-09-12T01:47:11;9.20;;;7.00;;
57249;SDS011;43102;52.014;-0.680;2022-09-12T01:48:06;9.20;;;7.00;;
57249;SDS011;43102;52.014;-0.680;2022-09-12T01:49:08;9.20;;;7.00;;
57249;SDS011;43102;52.014;-0.680;2022-09-12T01:50:16;9.20;;;7.00;;
57249;SDS011;43102;52.014;-0.680;2022-09-12T01:51:06;9.20;;;7.00;;
57249;SDS011;43102;52.014;-0.680;2022-09-12T01:52:13;9.20;;;7.00;;
57249;SDS011;43102;52.014;-0.680;2022-09-12T01:53:08;9.20;;;7.00;;
57249;SDS011;43102;52.014;-0.680;2022-09-12T01:54:05;9.20;;;7.00;;
57249;SDS011;43102;52.014;-0.680;2022-09-12T01:55:10;9.20;;;7.00;;
57249;SDS011;43102;52.014;-0.680;2022-09-12T01:56:12;9.20;;;7.00;;
57249;SDS011;43102;52.014;-0.680;2022-09-12T01:57:05;9.20;;;7.00;;
57249;SDS011;43102;52.014;-0.680;2022-09-12T01:58:12;9.20;;;7.00;;
57249;SDS011;43102;52.014;-0.680;2022-09-12T01:59:05;9.20;;;7.00;;
57249;SDS011;43102;52.014;-0.680;2022-09-12T02:00:04;9.20;;;7.00;;
57249;SDS011;43102;52.014;-0.680;2022-09-12T02:01:07;9.20;;;7.00;;
57249;SDS011;43102;52.014;-0.680;2022-09-12T02:03:06;9.20;;;7.00;;
57249;SDS011;43102;52.014;-0.680;2022-09-12T02:04:12;9.20;;;7.00;;
57249;SDS011;43102;52.014;-0.680;2022-09-12T02:05:05;9.20;;;7.00;;
57249;SDS011;43102;52.014;-0.680;2022-09-12T02:06:07;9.20;;;7.00;;
57249;SDS011;43102;52.014;-0.680;2022-09-12T02:07:07;9.20;;;7.00;;
57249;SDS011;43102;52.014;-0.680;2022-09-12T02:09:08;9.20;;;7.00;;
57249;SDS011;43102;52.014;-0.680;2022-09-12T02:10:09;9.20;;;7.00;;
57249;SDS011;43102;52.014;-0.680;2022-09-12T02:11:07;9.20;;;7.00;;
57249;SDS011;43102;52.014;-0.680;2022-09-12T02:12:00;9.20;;;7.00;;
57249;SDS011;43102;52.014;-0.680;2022-09-12T02:13:09;9.20;;;7.00;;
57249;SDS011;43102;52.014;-0.680;2022-09-12T02:14:05;9.90;;;7.80;;
57249;SDS011;43102;52.014;-0.680;2022-09-12T02:15:03;9.90;;;7.80;;
57249;SDS011;43102;52.014;-0.680;2022-09-12T02:16:10;9.90;;;7.80;;
57249;SDS011;43102;52.014;-0.680;2022-09-12T02:17:07;9.90;;;7.80;;
57249;SDS011;43102;52.014;-0.680;2022-09-12T02:18:04;9.90;;;7.80;;
57249;SDS011;43102;52.014;-0.680;2022-09-12T02:19:08;9.90;;;7.80;;
57249;SDS011;43102;52.014;-0.680;2022-09-12T02:20:06;9.90;;;7.80;;
57249;SDS011;43102;52.014;-0.680;2022-09-12T02:21:00;9.90;;;7.80;;
57249;SDS011;43102;52.014;-0.680;2022-09-12T02:22:02;9.90;;;7.80;;
57249;SDS011;43102;52.014;-0.680;2022-09-12T02:23:02;9.90;;;7.80;;
57249;SDS011;43102;52.014;-0.680;2022-09-12T02:24:03;9.90;;;7.80;;
57249;SDS011;43102;52.014;-0.680;2022-09-12T02:25:02;9.90;;;7.80;;
57249;SDS011;43102;52.014;-0.680;2022-09-12T02:26:08;9.90;;;7.80;;
57249;SDS011;43102;52.014;-0.680;2022-09-12T02:27:04;9.90;;;7.80;;
57249;SDS011;43102;52.014;-0.680;2022-09-12T02:28:05;9.90;;;7.80;;
57249;SDS011;43102;52.014;-0.680;2022-09-12T02:29:01;9.90;;;7.80;;
57249;SDS011;43102;52.014;-0.680;2022-09-12T02:30:00;9.90;;;7.80;;
57249;SDS011;43102;52.014;-0.680;2022-09-12T02:31:19;9.90;;;7.80;;
57249;SDS011;43102;52.014;-0.680;2022-09-12T02:32:05;9.90;;;7.80;;
57249;SDS011;43102;52.014;-0.680;2022-09-12T02:33:06;9.90;;;7.80;;
57249;SDS011;43102;52.014;-0.680;2022-09-12T02:35:07;9.90;;;7.80;;
57249;SDS011;43102;52.014;-0.680;2022-09-12T02:36:11;9.90;;;7.80;;
57249;SDS011;43102;52.014;-0.680;2022-09-12T02:37:17;9.90;;;7.80;;
57249;SDS011;43102;52.014;-0.680;2022-09-12T02:38:06;9.90;;;7.80;;
57249;SDS011;43102;52.014;-0.680;2022-09-12T02:39:00;9.90;;;7.80;;
57249;SDS011;43102;52.014;-0.680;2022-09-12T02:40:01;9.90;;;7.80;;
57249;SDS011;43102;52.014;-0.680;2022-09-12T02:41:00;9.90;;;7.80;;
57249;SDS011;43102;52.014;-0.680;2022-09-12T02:42:02;9.90;;;7.80;;
57249;SDS011;43102;52.014;-0.680;2022-09-12T02:43:02;9.90;;;7.80;;
57249;SDS011;43102;52.014;-0.680;2022-09-12T02:44:01;10.00;;;7.90;;
57249;SDS011;43102;52.014;-0.680;2022-09-12T02:45:01;10.00;;;7.90;;
57249;SDS011;43102;52.014;-0.680;2022-09-12T02:46:00;10.00;;;7.90;;
57249;SDS011;43102;52.014;-0.680;2022-09-12T02:47:05;10.00;;;7.90;;
57249;SDS011;43102;52.014;-0.680;2022-09-12T02:49:00;10.00;;;7.90;;
57249;SDS011;43102;52.014;-0.680;2022-09-12T02:50:00;10.00;;;7.90;;
57249;SDS011;43102;52.014;-0.680;2022-09-12T02:51:01;10.00;;;7.90;;
57249;SDS011;43102;52.014;-0.680;2022-09-12T02:52:00;10.00;;;7.90;;
57249;SDS011;43102;52.014;-0.680;2022-09-12T02:53:03;10.00;;;7.90;;
57249;SDS011;43102;52.014;-0.680;2022-09-12T02:54:02;10.00;;;7.90;;
57249;SDS011;43102;52.014;-0.680;2022-09-12T02:55:01;10.00;;;7.90;;
57249;SDS011;43102;52.014;-0.680;2022-09-12T02:56:00;10.00;;;7.90;;
57249;SDS011;43102;52.014;-0.680;2022-09-12T02:57:00;10.00;;;7.90;;
57249;SDS011;43102;52.014;-0.680;2022-09-12T02:58:03;10.00;;;7.90;;
57249;SDS011;43102;52.014;-0.680;2022-09-12T02:59:04;10.00;;;7.90;;
57249;SDS011;43102;52.014;-0.680;2022-09-12T03:00:01;10.00;;;7.90;;
57249;SDS011;43102;52.014;-0.680;2022-09-12T03:01:16;10.00;;;7.90;;
57249;SDS011;43102;52.014;-0.680;2022-09-12T03:04:18;10.00;;;7.90;;
57249;SDS011;43102;52.014;-0.680;2022-09-12T03:05:08;10.00;;;7.90;;
57249;SDS011;43102;52.014;-0.680;2022-09-12T03:06:04;10.00;;;7.90;;
57249;SDS011;43102;52.014;-0.680;2022-09-12T03:08:12;10.00;;;7.90;;
57249;SDS011;43102;52.014;-0.680;2022-09-12T03:09:16;10.00;;;7.90;;
57249;SDS011;43102;52.014;-0.680;2022-09-12T03:12:07;10.00;;;7.90;;
57249;SDS011;43102;52.014;-0.680;2022-09-12T03:15:06;9.20;;;7.80;;
57249;SDS011;43102;52.014;-0.680;2022-09-12T03:16:14;9.20;;;7.80;;
57249;SDS011;43102;52.014;-0.680;2022-09-12T03:18:05;9.20;;;7.80;;
57249;SDS011;43102;52.014;-0.680;2022-09-12T03:20:09;9.20;;;7.80;;
57249;SDS011;43102;52.014;-0.680;2022-09-12T03:23:08;9.20;;;7.80;;
57249;SDS011;43102;52.014;-0.680;2022-09-12T03:25:11;9.20;;;7.80;;
57249;SDS011;43102;52.014;-0.680;2022-09-12T03:26:05;9.20;;;7.80;;
57249;SDS011;43102;52.014;-0.680;2022-09-12T03:27:09;9.20;;;7.80;;
57249;SDS011;43102;52.014;-0.680;2022-09-12T03:28:08;9.20;;;7.80;;
57249;SDS011;43102;52.014;-0.680;2022-09-12T03:29:02;9.20;;;7.80;;
57249;SDS011;43102;52.014;-0.680;2022-09-12T03:30:03;9.20;;;7.80;;
57249;SDS011;43102;52.014;-0.680;2022-09-12T03:31:10;9.20;;;7.80;;
57249;SDS011;43102;52.014;-0.680;2022-09-12T03:32:00;9.20;;;7.80;;
57249;SDS011;43102;52.014;-0.680;2022-09-12T03:33:00;9.20;;;7.80;;
57249;SDS011;43102;52.014;-0.680;2022-09-12T03:34:00;9.20;;;7.80;;
57249;SDS011;43102;52.014;-0.680;2022-09-12T03:35:00;9.20;;;7.80;;
57249;SDS011;43102;52.014;-0.680;2022-09-12T03:36:00;9.20;;;7.80;;
57249;SDS011;43102;52.014;-0.680;2022-09-12T03:37:01;9.20;;;7.80;;
57249;SDS011;43102;52.014;-0.680;2022-09-12T03:38:00;9.20;;;7.80;;
57249;SDS011;43102;52.014;-0.680;2022-09-12T03:39:00;9.20;;;7.80;;
57249;SDS011;43102;52.014;-0.680;2022-09-12T03:40:00;9.20;;;7.80;;
57249;SDS011;43102;52.014;-0.680;2022-09-12T03:41:00;9.20;;;7.80;;
57249;SDS011;43102;52.014;-0.680;2022-09-12T03:42:00;9.20;;;7.80;;
57249;SDS011;43102;52.014;-0.680;2022-09-12T03:43:00;9.20;;;7.80;;
57249;SDS011;43102;52.014;-0.680;2022-09-12T03:44:01;13.00;;;10.60;;
57249;SDS011;43102;52.014;-0.680;2022-09-12T03:45:00;13.00;;;10.60;;
57249;SDS011;43102;52.014;-0.680;2022-09-12T03:46:00;13.00;;;10.60;;
57249;SDS011;43102;52.014;-0.680;2022-09-12T03:47:00;13.00;;;10.60;;
57249;SDS011;43102;52.014;-0.680;2022-09-12T03:48:00;13.00;;;10.60;;
57249;SDS011;43102;52.014;-0.680;2022-09-12T03:49:00;13.00;;;10.60;;
57249;SDS011;43102;52.014;-0.680;2022-09-12T03:50:01;13.00;;;10.60;;
57249;SDS011;43102;52.014;-0.680;2022-09-12T03:51:06;13.00;;;10.60;;
57249;SDS011;43102;52.014;-0.680;2022-09-12T03:52:00;13.00;;;10.60;;
57249;SDS011;43102;52.014;-0.680;2022-09-12T03:53:01;13.00;;;10.60;;
57249;SDS011;43102;52.014;-0.680;2022-09-12T03:54:00;13.00;;;10.60;;
57249;SDS011;43102;52.014;-0.680;2022-09-12T03:55:00;13.00;;;10.60;;
57249;SDS011;43102;52.014;-0.680;2022-09-12T03:56:07;13.00;;;10.60;;
57249;SDS011;43102;52.014;-0.680;2022-09-12T03:57:00;13.00;;;10.60;;
57249;SDS011;43102;52.014;-0.680;2022-09-12T03:58:00;13.00;;;10.60;;
57249;SDS011;43102;52.014;-0.680;2022-09-12T03:59:00;13.00;;;10.60;;
57249;SDS011;43102;52.014;-0.680;2022-09-12T04:00:01;13.00;;;10.60;;
57249;SDS011;43102;52.014;-0.680;2022-09-12T04:01:05;13.00;;;10.60;;
57249;SDS011;43102;52.014;-0.680;2022-09-12T04:02:00;13.00;;;10.60;;
57249;SDS011;43102;52.014;-0.680;2022-09-12T04:03:00;13.00;;;10.60;;
57249;SDS011;43102;52.014;-0.680;2022-09-12T04:04:00;13.00;;;10.60;;
57249;SDS011;43102;52.014;-0.680;2022-09-12T04:05:00;13.00;;;10.60;;
57249;SDS011;43102;52.014;-0.680;2022-09-12T04:06:00;13.00;;;10.60;;
57249;SDS011;43102;52.014;-0.680;2022-09-12T04:07:00;13.00;;;10.60;;
57249;SDS011;43102;52.014;-0.680;2022-09-12T04:08:00;13.00;;;10.60;;
57249;SDS011;43102;52.014;-0.680;2022-09-12T04:09:00;13.00;;;10.60;;
57249;SDS011;43102;52.014;-0.680;2022-09-12T04:10:00;13.00;;;10.60;;
57249;SDS011;43102;52.014;-0.680;2022-09-12T04:11:04;13.00;;;10.60;;
57249;SDS011;43102;52.014;-0.680;2022-09-12T04:12:00;13.00;;;10.60;;
57249;SDS011;43102;52.014;-0.680;2022-09-12T04:13:00;13.00;;;10.60;;
57249;SDS011;43102;52.014;-0.680;2022-09-12T04:14:00;14.50;;;11.40;;
57249;SDS011;43102;52.014;-0.680;2022-09-12T04:15:00;14.50;;;11.40;;
57249;SDS011;43102;52.014;-0.680;2022-09-12T04:16:00;14.50;;;11.40;;
57249;SDS011;43102;52.014;-0.680;2022-09-12T04:17:00;14.50;;;11.40;;
57249;SDS011;43102;52.014;-0.680;2022-09-12T04:18:06;14.50;;;11.40;;
57249;SDS011;43102;52.014;-0.680;2022-09-12T04:19:00;14.50;;;11.40;;
57249;SDS011;43102;52.014;-0.680;2022-09-12T04:20:00;14.50;;;11.40;;
57249;SDS011;43102;52.014;-0.680;2022-09-12T04:21:10;14.50;;;11.40;;
57249;SDS011;43102;52.014;-0.680;2022-09-12T04:22:00;14.50;;;11.40;;
57249;SDS011;43102;52.014;-0.680;2022-09-12T04:23:00;14.50;;;11.40;;
57249;SDS011;43102;52.014;-0.680;2022-09-12T04:24:00;14.50;;;11.40;;
57249;SDS011;43102;52.014;-0.680;2022-09-12T04:25:01;14.50;;;11.40;;
57249;SDS011;43102;52.014;-0.680;2022-09-12T04:26:02;14.50;;;11.40;;
57249;SDS011;43102;52.014;-0.680;2022-09-12T04:27:03;14.50;;;11.40;;
57249;SDS011;43102;52.014;-0.680;2022-09-12T04:28:00;14.50;;;11.40;;
57249;SDS011;43102;52.014;-0.680;2022-09-12T04:29:00;14.50;;;11.40;;
57249;SDS011;43102;52.014;-0.680;2022-09-12T04:30:01;14.50;;;11.40;;
57249;SDS011;43102;52.014;-0.680;2022-09-12T04:31:02;14.50;;;11.40;;
57249;SDS011;43102;52.014;-0.680;2022-09-12T04:32:00;14.50;;;11.40;;
57249;SDS011;43102;52.014;-0.680;2022-09-12T04:33:01;14.50;;;11.40;;
57249;SDS011;43102;52.014;-0.680;2022-09-12T04:34:00;14.50;;;11.40;;
57249;SDS011;43102;52.014;-0.680;2022-09-12T04:35:01;14.50;;;11.40;;
57249;SDS011;43102;52.014;-0.680;2022-09-12T04:36:05;14.50;;;11.40;;
57249;SDS011;43102;52.014;-0.680;2022-09-12T04:37:00;14.50;;;11.40;;
57249;SDS011;43102;52.014;-0.680;2022-09-12T04:38:00;14.50;;;11.40;;
57249;SDS011;43102;52.014;-0.680;2022-09-12T04:39:02;14.50;;;11.40;;
57249;SDS011;43102;52.014;-0.680;2022-09-12T04:40:00;14.50;;;11.40;;
57249;SDS011;43102;52.014;-0.680;2022-09-12T04:41:00;14.50;;;11.40;;
57249;SDS011;43102;52.014;-0.680;2022-09-12T04:42:01;14.50;;;11.40;;
57249;SDS011;43102;52.014;-0.680;2022-09-12T04:43:00;14.50;;;11.40;;
57249;SDS011;43102;52.014;-0.680;2022-09-12T04:44:03;15.60;;;12.10;;
57249;SDS011;43102;52.014;-0.680;2022-09-12T04:45:00;15.60;;;12.10;;
57249;SDS011;43102;52.014;-0.680;2022-09-12T04:46:04;15.60;;;12.10;;
57249;SDS011;43102;52.014;-0.680;2022-09-12T04:47:00;15.60;;;12.10;;
57249;SDS011;43102;52.014;-0.680;2022-09-12T04:48:00;15.60;;;12.10;;
57249;SDS011;43102;52.014;-0.680;2022-09-12T04:49:00;15.60;;;12.10;;
57249;SDS011;43102;52.014;-0.680;2022-09-12T04:50:00;15.60;;;12.10;;
57249;SDS011;43102;52.014;-0.680;2022-09-12T04:51:09;15.60;;;12.10;;
57249;SDS011;43102;52.014;-0.680;2022-09-12T04:52:01;15.60;;;12.10;;
57249;SDS011;43102;52.014;-0.680;2022-09-12T04:53:00;15.60;;;12.10;;
57249;SDS011;43102;52.014;-0.680;2022-09-12T04:54:03;15.60;;;12.10;;
57249;SDS011;43102;52.014;-0.680;2022-09-12T04:55:00;15.60;;;12.10;;
57249;SDS011;43102;52.014;-0.680;2022-09-12T04:56:02;15.60;;;12.10;;
57249;SDS011;43102;52.014;-0.680;2022-09-12T04:57:00;15.60;;;12.10;;
57249;SDS011;43102;52.014;-0.680;2022-09-12T04:58:01;15.60;;;12.10;;
57249;SDS011;43102;52.014;-0.680;2022-09-12T04:59:00;15.60;;;12.10;;
57249;SDS011;43102;52.014;-0.680;2022-09-12T05:00:07;15.60;;;12.10;;
57249;SDS011;43102;52.014;-0.680;2022-09-12T05:01:10;15.60;;;12.10;;
57249;SDS011;43102;52.014;-0.680;2022-09-12T05:02:01;15.60;;;12.10;;
57249;SDS011;43102;52.014;-0.680;2022-09-12T05:03:00;15.60;;;12.10;;
57249;SDS011;43102;52.014;-0.680;2022-09-12T05:04:01;15.60;;;12.10;;
57249;SDS011;43102;52.014;-0.680;2022-09-12T05:05:00;15.60;;;12.10;;
57249;SDS011;43102;52.014;-0.680;2022-09-12T05:06:02;15.60;;;12.10;;
57249;SDS011;43102;52.014;-0.680;2022-09-12T05:07:00;15.60;;;12.10;;
57249;SDS011;43102;52.014;-0.680;2022-09-12T05:08:00;15.60;;;12.10;;
57249;SDS011;43102;52.014;-0.680;2022-09-12T05:09:01;15.60;;;12.10;;
57249;SDS011;43102;52.014;-0.680;2022-09-12T05:10:00;15.60;;;12.10;;
57249;SDS011;43102;52.014;-0.680;2022-09-12T05:11:05;15.60;;;12.10;;
57249;SDS011;43102;52.014;-0.680;2022-09-12T05:12:06;15.60;;;12.10;;
57249;SDS011;43102;52.014;-0.680;2022-09-12T05:13:00;15.60;;;12.10;;
57249;SDS011;43102;52.014;-0.680;2022-09-12T05:14:00;17.20;;;12.20;;
57249;SDS011;43102;52.014;-0.680;2022-09-12T05:15:01;17.20;;;12.20;;
57249;SDS011;43102;52.014;-0.680;2022-09-12T05:16:01;17.20;;;12.20;;
57249;SDS011;43102;52.014;-0.680;2022-09-12T05:17:01;17.20;;;12.20;;
57249;SDS011;43102;52.014;-0.680;2022-09-12T05:18:00;17.20;;;12.20;;
57249;SDS011;43102;52.014;-0.680;2022-09-12T05:19:00;17.20;;;12.20;;
57249;SDS011;43102;52.014;-0.680;2022-09-12T05:20:00;17.20;;;12.20;;
57249;SDS011;43102;52.014;-0.680;2022-09-12T05:21:02;17.20;;;12.20;;
57249;SDS011;43102;52.014;-0.680;2022-09-12T05:22:00;17.20;;;12.20;;
57249;SDS011;43102;52.014;-0.680;2022-09-12T05:23:00;17.20;;;12.20;;
57249;SDS011;43102;52.014;-0.680;2022-09-12T05:24:00;17.20;;;12.20;;
57249;SDS011;43102;52.014;-0.680;2022-09-12T05:25:00;17.20;;;12.20;;
57249;SDS011;43102;52.014;-0.680;2022-09-12T05:26:01;17.20;;;12.20;;
57249;SDS011;43102;52.014;-0.680;2022-09-12T05:27:02;17.20;;;12.20;;
57249;SDS011;43102;52.014;-0.680;2022-09-12T05:28:00;17.20;;;12.20;;
57249;SDS011;43102;52.014;-0.680;2022-09-12T05:29:03;17.20;;;12.20;;
57249;SDS011;43102;52.014;-0.680;2022-09-12T05:30:00;17.20;;;12.20;;
57249;SDS011;43102;52.014;-0.680;2022-09-12T05:31:04;17.20;;;12.20;;
57249;SDS011;43102;52.014;-0.680;2022-09-12T05:32:02;17.20;;;12.20;;
57249;SDS011;43102;52.014;-0.680;2022-09-12T05:33:00;17.20;;;12.20;;
57249;SDS011;43102;52.014;-0.680;2022-09-12T05:34:00;17.20;;;12.20;;
57249;SDS011;43102;52.014;-0.680;2022-09-12T05:35:00;17.20;;;12.20;;
57249;SDS011;43102;52.014;-0.680;2022-09-12T05:36:01;17.20;;;12.20;;
57249;SDS011;43102;52.014;-0.680;2022-09-12T05:37:00;17.20;;;12.20;;
57249;SDS011;43102;52.014;-0.680;2022-09-12T05:38:00;17.20;;;12.20;;
57249;SDS011;43102;52.014;-0.680;2022-09-12T05:39:00;17.20;;;12.20;;
57249;SDS011;43102;52.014;-0.680;2022-09-12T05:40:04;17.20;;;12.20;;
57249;SDS011;43102;52.014;-0.680;2022-09-12T05:42:00;17.20;;;12.20;;
57249;SDS011;43102;52.014;-0.680;2022-09-12T05:43:00;17.20;;;12.20;;
57249;SDS011;43102;52.014;-0.680;2022-09-12T05:44:03;17.60;;;13.50;;
57249;SDS011;43102;52.014;-0.680;2022-09-12T05:45:00;17.60;;;13.50;;
57249;SDS011;43102;52.014;-0.680;2022-09-12T05:46:01;17.60;;;13.50;;
57249;SDS011;43102;52.014;-0.680;2022-09-12T05:47:00;17.60;;;13.50;;
57249;SDS011;43102;52.014;-0.680;2022-09-12T05:48:01;17.60;;;13.50;;
57249;SDS011;43102;52.014;-0.680;2022-09-12T05:49:03;17.60;;;13.50;;
57249;SDS011;43102;52.014;-0.680;2022-09-12T05:50:00;17.60;;;13.50;;
57249;SDS011;43102;52.014;-0.680;2022-09-12T05:51:05;17.60;;;13.50;;
57249;SDS011;43102;52.014;-0.680;2022-09-12T05:52:00;17.60;;;13.50;;
57249;SDS011;43102;52.014;-0.680;2022-09-12T05:53:00;17.60;;;13.50;;
57249;SDS011;43102;52.014;-0.680;2022-09-12T05:54:03;17.60;;;13.50;;
57249;SDS011;43102;52.014;-0.680;2022-09-12T05:55:00;17.60;;;13.50;;
57249;SDS011;43102;52.014;-0.680;2022-09-12T05:56:01;17.60;;;13.50;;
57249;SDS011;43102;52.014;-0.680;2022-09-12T05:57:00;17.60;;;13.50;;
57249;SDS011;43102;52.014;-0.680;2022-09-12T05:58:00;17.60;;;13.50;;
57249;SDS011;43102;52.014;-0.680;2022-09-12T05:59:03;17.60;;;13.50;;
57249;SDS011;43102;52.014;-0.680;2022-09-12T06:00:00;17.60;;;13.50;;
57249;SDS011;43102;52.014;-0.680;2022-09-12T06:01:03;17.60;;;13.50;;
57249;SDS011;43102;52.014;-0.680;2022-09-12T06:02:00;17.60;;;13.50;;
57249;SDS011;43102;52.014;-0.680;2022-09-12T06:03:00;17.60;;;13.50;;
57249;SDS011;43102;52.014;-0.680;2022-09-12T06:04:02;17.60;;;13.50;;
57249;SDS011;43102;52.014;-0.680;2022-09-12T06:05:00;17.60;;;13.50;;
57249;SDS011;43102;52.014;-0.680;2022-09-12T06:06:02;17.60;;;13.50;;
57249;SDS011;43102;52.014;-0.680;2022-09-12T06:07:00;17.60;;;13.50;;
57249;SDS011;43102;52.014;-0.680;2022-09-12T06:08:00;17.60;;;13.50;;
57249;SDS011;43102;52.014;-0.680;2022-09-12T06:09:03;17.60;;;13.50;;
57249;SDS011;43102;52.014;-0.680;2022-09-12T06:10:01;17.60;;;13.50;;
57249;SDS011;43102;52.014;-0.680;2022-09-12T06:11:03;17.60;;;13.50;;
57249;SDS011;43102;52.014;-0.680;2022-09-12T06:12:00;17.60;;;13.50;;
57249;SDS011;43102;52.014;-0.680;2022-09-12T06:13:00;17.60;;;13.50;;
57249;SDS011;43102;52.014;-0.680;2022-09-12T06:14:01;16.00;;;12.60;;
57249;SDS011;43102;52.014;-0.680;2022-09-12T06:15:00;16.00;;;12.60;;
57249;SDS011;43102;52.014;-0.680;2022-09-12T06:16:05;16.00;;;12.60;;
57249;SDS011;43102;52.014;-0.680;2022-09-12T06:17:00;16.00;;;12.60;;
57249;SDS011;43102;52.014;-0.680;2022-09-12T06:18:00;16.00;;;12.60;;
57249;SDS011;43102;52.014;-0.680;2022-09-12T06:19:03;16.00;;;12.60;;
57249;SDS011;43102;52.014;-0.680;2022-09-12T06:20:00;16.00;;;12.60;;
57249;SDS011;43102;52.014;-0.680;2022-09-12T06:21:04;16.00;;;12.60;;
57249;SDS011;43102;52.014;-0.680;2022-09-12T06:22:00;16.00;;;12.60;;